L9-FF-1

EHMG · Friesland, 荷兰

罗盘
风向 的 风向 100° 直升机
风: 31 kt, 7 beaufort
0 1.000 2.000 3.000 4.000 5.000
SCT 1.600 ft
SCT 2.100 ft
METAR EHMG 032255Z AUTO 10031KT 9999 SCT016 SCT021 05/01 Q1021

METAR L9-FF-1 - EHMG

L9-FF-1是,荷兰中的直升机场。 该领域的国际民航组织标志是EHMG.

这份报告是针对2022年12月3日 23:55, 当地时间在L9-FF-1进行的。

机场观察

风向为100°,速度为31 kt。

可见度为10 km 或者更多。

有疏云,零星散落的云朵在1.600 ft的高度 和 疏云,零星散落的云朵在2.100 ft的高度。 没有观察到天花板。

温度为5 °C,阵风为-4 °C。 露点为1 °C,相对湿度为76%。 海平面上的气压为1021 hPa (QNH)。

白天

今天,太阳从08:36升起,在16:23降落。 这适用于L9-FF-1,世界夏令时可能有所不同。 当地时间与世界标准时间之间的时差为+1 小时。 当前,没有夏令时有效。

公司介绍

我们没有关于这个机场的公司信息。

体会

到Vliegles.nl去找飞行课程,跳伞和其他飞行体验。 浏览页面,了解L9-FF-1附近所有可用的活动。 你也可以使用搜索功能来寻找你所在地附近的特定飞行课程、跳伞或其他飞行体验。

乌云

1.600 ft SCT 疏云,零星散落的云朵
2.100 ft SCT 疏云,零星散落的云朵

温度 & 天气

温度 5 °C
露点 1 °C
相对湿度 76%
风寒 -4 °C
Kp-index 1 (0-9)

白天

日出
08:36 (8:34)
中午
12:29
日落
16:23

小工具

你想在你的网站上有一个关于L9-FF-1的当前航空天气(METAR)的小部件吗?

显示HTML代码

我们和第三方通过cookies跟踪您在我们网站上的互联网行为。如果你继续,我们认为你同意我们的饼干政策